sensor_id;sensor_type;location;lat;lon;timestamp;P1;durP1;ratioP1;P2;durP2;ratioP2
33162;SDS011;29282;45.656;11.302;2023-02-15T00:01:54;12.70;;;9.02;;
33162;SDS011;29282;45.656;11.302;2023-02-15T00:04:21;11.63;;;8.98;;
33162;SDS011;29282;45.656;11.302;2023-02-15T00:06:48;16.02;;;9.27;;
33162;SDS011;29282;45.656;11.302;2023-02-15T00:09:14;11.43;;;8.90;;
33162;SDS011;29282;45.656;11.302;2023-02-15T00:11:40;14.77;;;9.18;;
33162;SDS011;29282;45.656;11.302;2023-02-15T00:16:34;12.32;;;8.93;;
33162;SDS011;29282;45.656;11.302;2023-02-15T00:19:00;13.10;;;8.98;;
33162;SDS011;29282;45.656;11.302;2023-02-15T00:21:27;14.90;;;9.50;;
33162;SDS011;29282;45.656;11.302;2023-02-15T00:23:54;13.95;;;9.07;;
33162;SDS011;29282;45.656;11.302;2023-02-15T00:26:21;11.77;;;9.05;;
33162;SDS011;29282;45.656;11.302;2023-02-15T00:28:47;13.35;;;8.60;;
33162;SDS011;29282;45.656;11.302;2023-02-15T00:31:12;12.50;;;9.20;;
33162;SDS011;29282;45.656;11.302;2023-02-15T00:33:38;12.32;;;8.63;;
33162;SDS011;29282;45.656;11.302;2023-02-15T00:36:08;11.55;;;8.88;;
33162;SDS011;29282;45.656;11.302;2023-02-15T00:38:35;11.75;;;9.02;;
33162;SDS011;29282;45.656;11.302;2023-02-15T00:41:02;14.25;;;9.18;;
33162;SDS011;29282;45.656;11.302;2023-02-15T00:43:29;13.07;;;8.88;;
33162;SDS011;29282;45.656;11.302;2023-02-15T00:45:56;12.15;;;9.00;;
33162;SDS011;29282;45.656;11.302;2023-02-15T00:48:21;11.45;;;8.65;;
33162;SDS011;29282;45.656;11.302;2023-02-15T00:50:51;11.50;;;8.30;;
33162;SDS011;29282;45.656;11.302;2023-02-15T00:53:19;11.80;;;8.27;;
33162;SDS011;29282;45.656;11.302;2023-02-15T00:55:45;11.98;;;9.25;;
33162;SDS011;29282;45.656;11.302;2023-02-15T00:58:11;11.20;;;8.45;;
33162;SDS011;29282;45.656;11.302;2023-02-15T01:00:38;11.40;;;8.80;;
33162;SDS011;29282;45.656;11.302;2023-02-15T01:03:06;12.70;;;8.60;;
33162;SDS011;29282;45.656;11.302;2023-02-15T01:05:31;13.40;;;8.40;;
33162;SDS011;29282;45.656;11.302;2023-02-15T01:07:58;10.30;;;7.97;;
33162;SDS011;29282;45.656;11.302;2023-02-15T01:10:24;11.00;;;8.10;;
33162;SDS011;29282;45.656;11.302;2023-02-15T01:12:51;12.10;;;8.27;;
33162;SDS011;29282;45.656;11.302;2023-02-15T01:15:18;10.45;;;8.02;;
33162;SDS011;29282;45.656;11.302;2023-02-15T01:17:44;11.93;;;8.52;;
33162;SDS011;29282;45.656;11.302;2023-02-15T01:20:16;12.38;;;8.07;;
33162;SDS011;29282;45.656;11.302;2023-02-15T01:22:42;10.73;;;8.10;;
33162;SDS011;29282;45.656;11.302;2023-02-15T01:25:08;11.50;;;7.78;;
33162;SDS011;29282;45.656;11.302;2023-02-15T01:27:34;10.50;;;8.05;;
33162;SDS011;29282;45.656;11.302;2023-02-15T01:30:00;11.35;;;8.40;;
33162;SDS011;29282;45.656;11.302;2023-02-15T01:32:25;10.27;;;8.05;;
33162;SDS011;29282;45.656;11.302;2023-02-15T01:34:51;12.50;;;8.20;;
33162;SDS011;29282;45.656;11.302;2023-02-15T01:37:17;11.68;;;8.02;;
33162;SDS011;29282;45.656;11.302;2023-02-15T01:39:43;10.60;;;7.15;;
33162;SDS011;29282;45.656;11.302;2023-02-15T01:42:11;7.82;;;7.03;;
33162;SDS011;29282;45.656;11.302;2023-02-15T01:44:51;10.68;;;7.35;;
33162;SDS011;29282;45.656;11.302;2023-02-15T01:49:58;9.68;;;7.40;;
33162;SDS011;29282;45.656;11.302;2023-02-15T01:52:30;8.90;;;6.90;;
33162;SDS011;29282;45.656;11.302;2023-02-15T01:54:56;8.02;;;6.65;;
33162;SDS011;29282;45.656;11.302;2023-02-15T01:57:23;10.18;;;6.88;;
33162;SDS011;29282;45.656;11.302;2023-02-15T01:59:52;7.60;;;6.30;;
33162;SDS011;29282;45.656;11.302;2023-02-15T02:02:21;9.43;;;7.28;;
33162;SDS011;29282;45.656;11.302;2023-02-15T02:04:52;8.20;;;6.47;;
33162;SDS011;29282;45.656;11.302;2023-02-15T02:07:24;8.73;;;6.70;;
33162;SDS011;29282;45.656;11.302;2023-02-15T02:09:52;8.50;;;6.45;;
33162;SDS011;29282;45.656;11.302;2023-02-15T02:12:17;8.88;;;6.72;;
33162;SDS011;29282;45.656;11.302;2023-02-15T02:14:46;8.32;;;6.45;;
33162;SDS011;29282;45.656;11.302;2023-02-15T02:17:17;9.07;;;6.78;;
33162;SDS011;29282;45.656;11.302;2023-02-15T02:31:28;8.70;;;5.93;;
33162;SDS011;29282;45.656;11.302;2023-02-15T02:34:10;7.82;;;5.85;;
33162;SDS011;29282;45.656;11.302;2023-02-15T02:36:46;8.73;;;6.32;;
33162;SDS011;29282;45.656;11.302;2023-02-15T02:42:02;7.35;;;5.95;;
33162;SDS011;29282;45.656;11.302;2023-02-15T02:44:47;7.78;;;5.70;;
33162;SDS011;29282;45.656;11.302;2023-02-15T02:50:04;8.10;;;5.85;;
33162;SDS011;29282;45.656;11.302;2023-02-15T02:52:40;6.82;;;5.53;;
33162;SDS011;29282;45.656;11.302;2023-02-15T02:55:11;6.70;;;5.45;;
33162;SDS011;29282;45.656;11.302;2023-02-15T03:00:37;7.97;;;5.88;;
33162;SDS011;29282;45.656;11.302;2023-02-15T03:03:15;8.52;;;5.70;;
33162;SDS011;29282;45.656;11.302;2023-02-15T03:05:55;8.63;;;5.00;;
33162;SDS011;29282;45.656;11.302;2023-02-15T03:08:25;6.53;;;5.20;;
33162;SDS011;29282;45.656;11.302;2023-02-15T03:10:55;6.05;;;5.10;;
33162;SDS011;29282;45.656;11.302;2023-02-15T03:13:23;7.60;;;5.60;;
33162;SDS011;29282;45.656;11.302;2023-02-15T03:15:49;7.53;;;5.75;;
33162;SDS011;29282;45.656;11.302;2023-02-15T03:18:36;6.55;;;5.32;;
33162;SDS011;29282;45.656;11.302;2023-02-15T03:21:06;8.05;;;5.47;;
33162;SDS011;29282;45.656;11.302;2023-02-15T03:23:47;7.88;;;5.88;;
33162;SDS011;29282;45.656;11.302;2023-02-15T03:26:17;5.85;;;4.50;;
33162;SDS011;29282;45.656;11.302;2023-02-15T03:28:45;7.30;;;5.00;;
33162;SDS011;29282;45.656;11.302;2023-02-15T03:31:16;5.82;;;4.88;;
33162;SDS011;29282;45.656;11.302;2023-02-15T03:34:16;5.70;;;4.80;;
33162;SDS011;29282;45.656;11.302;2023-02-15T03:36:53;6.55;;;5.00;;
33162;SDS011;29282;45.656;11.302;2023-02-15T03:39:22;6.20;;;4.85;;
33162;SDS011;29282;45.656;11.302;2023-02-15T03:41:58;7.33;;;5.30;;
33162;SDS011;29282;45.656;11.302;2023-02-15T03:44:30;7.22;;;5.20;;
33162;SDS011;29282;45.656;11.302;2023-02-15T03:47:05;7.68;;;5.07;;
33162;SDS011;29282;45.656;11.302;2023-02-15T03:52:28;5.03;;;4.40;;
33162;SDS011;29282;45.656;11.302;2023-02-15T03:54:56;5.80;;;4.43;;
33162;SDS011;29282;45.656;11.302;2023-02-15T03:57:23;6.30;;;4.88;;
33162;SDS011;29282;45.656;11.302;2023-02-15T04:00:12;5.90;;;4.32;;
33162;SDS011;29282;45.656;11.302;2023-02-15T04:05:28;5.65;;;4.20;;
33162;SDS011;29282;45.656;11.302;2023-02-15T04:07:53;5.78;;;4.88;;
33162;SDS011;29282;45.656;11.302;2023-02-15T04:10:18;6.32;;;4.60;;
33162;SDS011;29282;45.656;11.302;2023-02-15T04:13:02;5.40;;;4.50;;
33162;SDS011;29282;45.656;11.302;2023-02-15T04:15:28;5.97;;;4.57;;
33162;SDS011;29282;45.656;11.302;2023-02-15T04:18:13;6.38;;;4.30;;
33162;SDS011;29282;45.656;11.302;2023-02-15T04:20:38;5.30;;;4.70;;
33162;SDS011;29282;45.656;11.302;2023-02-15T04:23:22;4.83;;;4.43;;
33162;SDS011;29282;45.656;11.302;2023-02-15T04:26:06;5.53;;;4.30;;
33162;SDS011;29282;45.656;11.302;2023-02-15T04:28:32;5.07;;;4.10;;
33162;SDS011;29282;45.656;11.302;2023-02-15T04:30:57;6.30;;;4.50;;
33162;SDS011;29282;45.656;11.302;2023-02-15T04:33:23;5.03;;;3.97;;
33162;SDS011;29282;45.656;11.302;2023-02-15T04:35:48;6.65;;;4.60;;
33162;SDS011;29282;45.656;11.302;2023-02-15T04:38:14;5.03;;;4.05;;
33162;SDS011;29282;45.656;11.302;2023-02-15T04:40:39;6.07;;;4.55;;
33162;SDS011;29282;45.656;11.302;2023-02-15T04:43:05;5.22;;;4.20;;
33162;SDS011;29282;45.656;11.302;2023-02-15T04:45:30;4.32;;;3.92;;
33162;SDS011;29282;45.656;11.302;2023-02-15T04:47:56;5.03;;;3.95;;
33162;SDS011;29282;45.656;11.302;2023-02-15T04:50:21;5.80;;;4.00;;
33162;SDS011;29282;45.656;11.302;2023-02-15T04:52:47;6.75;;;3.70;;
33162;SDS011;29282;45.656;11.302;2023-02-15T04:55:12;6.65;;;4.03;;
33162;SDS011;29282;45.656;11.302;2023-02-15T04:57:39;5.65;;;4.00;;
33162;SDS011;29282;45.656;11.302;2023-02-15T05:00:05;4.88;;;3.95;;
33162;SDS011;29282;45.656;11.302;2023-02-15T05:02:31;5.63;;;4.13;;
33162;SDS011;29282;45.656;11.302;2023-02-15T05:04:56;5.93;;;4.20;;
33162;SDS011;29282;45.656;11.302;2023-02-15T05:07:22;4.45;;;4.00;;
33162;SDS011;29282;45.656;11.302;2023-02-15T05:09:48;4.93;;;4.10;;
33162;SDS011;29282;45.656;11.302;2023-02-15T05:12:13;6.57;;;3.65;;
33162;SDS011;29282;45.656;11.302;2023-02-15T05:14:39;6.63;;;4.18;;
33162;SDS011;29282;45.656;11.302;2023-02-15T05:17:04;6.28;;;4.03;;
33162;SDS011;29282;45.656;11.302;2023-02-15T05:19:30;5.28;;;3.90;;
33162;SDS011;29282;45.656;11.302;2023-02-15T05:21:55;6.85;;;3.80;;
33162;SDS011;29282;45.656;11.302;2023-02-15T05:24:21;5.15;;;3.90;;
33162;SDS011;29282;45.656;11.302;2023-02-15T05:27:05;5.28;;;4.15;;
33162;SDS011;29282;45.656;11.302;2023-02-15T05:29:50;4.82;;;3.80;;
33162;SDS011;29282;45.656;11.302;2023-02-15T05:32:15;28.15;;;8.50;;
33162;SDS011;29282;45.656;11.302;2023-02-15T05:34:41;35.55;;;9.65;;
33162;SDS011;29282;45.656;11.302;2023-02-15T05:37:06;32.38;;;9.20;;
33162;SDS011;29282;45.656;11.302;2023-02-15T05:39:32;26.02;;;8.13;;
33162;SDS011;29282;45.656;11.302;2023-02-15T05:41:59;22.38;;;7.75;;
33162;SDS011;29282;45.656;11.302;2023-02-15T05:44:25;24.92;;;8.23;;
33162;SDS011;29282;45.656;11.302;2023-02-15T05:46:50;23.00;;;7.85;;
33162;SDS011;29282;45.656;11.302;2023-02-15T05:49:16;24.25;;;7.70;;
33162;SDS011;29282;45.656;11.302;2023-02-15T05:51:41;21.65;;;8.13;;
33162;SDS011;29282;45.656;11.302;2023-02-15T05:54:07;23.42;;;7.30;;
33162;SDS011;29282;45.656;11.302;2023-02-15T05:56:32;22.58;;;7.70;;
33162;SDS011;29282;45.656;11.302;2023-02-15T05:58:58;23.40;;;7.72;;
33162;SDS011;29282;45.656;11.302;2023-02-15T06:01:24;21.30;;;7.18;;
33162;SDS011;29282;45.656;11.302;2023-02-15T06:03:49;25.52;;;7.53;;
33162;SDS011;29282;45.656;11.302;2023-02-15T06:06:15;19.73;;;7.20;;
33162;SDS011;29282;45.656;11.302;2023-02-15T06:08:41;19.50;;;7.20;;
33162;SDS011;29282;45.656;11.302;2023-02-15T06:11:07;21.33;;;7.13;;
33162;SDS011;29282;45.656;11.302;2023-02-15T06:13:32;24.33;;;7.50;;
33162;SDS011;29282;45.656;11.302;2023-02-15T06:15:59;18.73;;;6.57;;
33162;SDS011;29282;45.656;11.302;2023-02-15T06:18:25;18.65;;;7.05;;
33162;SDS011;29282;45.656;11.302;2023-02-15T06:20:50;16.10;;;6.55;;
33162;SDS011;29282;45.656;11.302;2023-02-15T06:23:16;18.80;;;6.85;;
33162;SDS011;29282;45.656;11.302;2023-02-15T06:25:43;18.77;;;6.63;;
33162;SDS011;29282;45.656;11.302;2023-02-15T06:28:09;15.40;;;6.38;;
33162;SDS011;29282;45.656;11.302;2023-02-15T06:30:35;15.25;;;6.07;;
33162;SDS011;29282;45.656;11.302;2023-02-15T06:33:00;15.73;;;6.50;;
33162;SDS011;29282;45.656;11.302;2023-02-15T06:35:26;20.45;;;7.55;;
33162;SDS011;29282;45.656;11.302;2023-02-15T06:37:51;14.00;;;6.97;;
33162;SDS011;29282;45.656;11.302;2023-02-15T06:40:17;16.67;;;6.78;;
33162;SDS011;29282;45.656;11.302;2023-02-15T06:42:42;17.45;;;6.18;;
33162;SDS011;29282;45.656;11.302;2023-02-15T06:45:09;16.83;;;6.65;;
33162;SDS011;29282;45.656;11.302;2023-02-15T06:47:35;18.70;;;7.00;;
33162;SDS011;29282;45.656;11.302;2023-02-15T06:50:00;15.38;;;6.63;;
33162;SDS011;29282;45.656;11.302;2023-02-15T06:52:26;17.70;;;6.63;;
33162;SDS011;29282;45.656;11.302;2023-02-15T06:54:52;14.18;;;6.70;;
33162;SDS011;29282;45.656;11.302;2023-02-15T06:57:17;15.15;;;6.30;;
33162;SDS011;29282;45.656;11.302;2023-02-15T06:59:42;19.35;;;6.82;;
33162;SDS011;29282;45.656;11.302;2023-02-15T07:02:09;13.35;;;6.28;;
33162;SDS011;29282;45.656;11.302;2023-02-15T07:04:36;24.13;;;6.60;;
33162;SDS011;29282;45.656;11.302;2023-02-15T07:07:01;16.10;;;6.28;;
33162;SDS011;29282;45.656;11.302;2023-02-15T07:09:27;17.23;;;6.07;;
33162;SDS011;29282;45.656;11.302;2023-02-15T07:11:53;15.95;;;6.22;;
33162;SDS011;29282;45.656;11.302;2023-02-15T07:14:37;15.05;;;6.22;;
33162;SDS011;29282;45.656;11.302;2023-02-15T07:17:02;16.60;;;6.53;;
33162;SDS011;29282;45.656;11.302;2023-02-15T07:19:28;14.23;;;6.25;;
33162;SDS011;29282;45.656;11.302;2023-02-15T07:21:53;15.43;;;6.22;;
33162;SDS011;29282;45.656;11.302;2023-02-15T07:24:19;14.07;;;6.57;;
33162;SDS011;29282;45.656;11.302;2023-02-15T07:26:44;18.23;;;6.68;;
33162;SDS011;29282;45.656;11.302;2023-02-15T07:29:10;20.02;;;6.95;;
33162;SDS011;29282;45.656;11.302;2023-02-15T07:31:35;18.38;;;6.15;;
33162;SDS011;29282;45.656;11.302;2023-02-15T07:34:01;15.43;;;6.47;;
33162;SDS011;29282;45.656;11.302;2023-02-15T07:36:26;16.20;;;7.28;;
33162;SDS011;29282;45.656;11.302;2023-02-15T07:38:52;20.67;;;6.38;;
33162;SDS011;29282;45.656;11.302;2023-02-15T07:41:17;18.77;;;6.75;;
33162;SDS011;29282;45.656;11.302;2023-02-15T07:43:43;18.45;;;6.45;;
33162;SDS011;29282;45.656;11.302;2023-02-15T07:46:14;15.52;;;6.68;;
33162;SDS011;29282;45.656;11.302;2023-02-15T07:48:41;15.10;;;6.78;;
33162;SDS011;29282;45.656;11.302;2023-02-15T07:51:08;15.95;;;6.70;;
33162;SDS011;29282;45.656;11.302;2023-02-15T07:53:35;18.27;;;7.57;;
33162;SDS011;29282;45.656;11.302;2023-02-15T07:56:03;14.43;;;6.80;;
33162;SDS011;29282;45.656;11.302;2023-02-15T07:58:31;13.60;;;6.93;;
33162;SDS011;29282;45.656;11.302;2023-02-15T08:01:16;13.95;;;7.13;;
33162;SDS011;29282;45.656;11.302;2023-02-15T08:03:53;15.52;;;7.40;;
33162;SDS011;29282;45.656;11.302;2023-02-15T08:06:19;16.00;;;7.43;;
33162;SDS011;29282;45.656;11.302;2023-02-15T08:08:46;14.98;;;7.45;;
33162;SDS011;29282;45.656;11.302;2023-02-15T08:16:58;15.43;;;6.43;;
33162;SDS011;29282;45.656;11.302;2023-02-15T08:22:10;12.25;;;6.18;;
33162;SDS011;29282;45.656;11.302;2023-02-15T08:24:37;12.25;;;6.68;;
33162;SDS011;29282;45.656;11.302;2023-02-15T08:27:04;15.80;;;7.22;;
33162;SDS011;29282;45.656;11.302;2023-02-15T08:29:31;13.27;;;6.93;;
33162;SDS011;29282;45.656;11.302;2023-02-15T08:32:01;9.88;;;6.18;;
33162;SDS011;29282;45.656;11.302;2023-02-15T08:34:31;12.77;;;6.93;;
33162;SDS011;29282;45.656;11.302;2023-02-15T08:37:02;14.32;;;7.07;;
33162;SDS011;29282;45.656;11.302;2023-02-15T08:39:28;14.45;;;6.85;;
33162;SDS011;29282;45.656;11.302;2023-02-15T08:41:53;10.52;;;7.05;;
33162;SDS011;29282;45.656;11.302;2023-02-15T08:44:20;12.63;;;7.10;;
33162;SDS011;29282;45.656;11.302;2023-02-15T08:46:46;12.05;;;6.78;;
33162;SDS011;29282;45.656;11.302;2023-02-15T08:49:17;11.05;;;6.50;;
33162;SDS011;29282;45.656;11.302;2023-02-15T08:51:44;13.63;;;6.95;;
33162;SDS011;29282;45.656;11.302;2023-02-15T08:54:14;10.80;;;6.07;;
33162;SDS011;29282;45.656;11.302;2023-02-15T08:56:42;15.48;;;7.35;;
33162;SDS011;29282;45.656;11.302;2023-02-15T08:59:13;10.63;;;6.63;;
33162;SDS011;29282;45.656;11.302;2023-02-15T09:01:48;12.85;;;6.50;;
33162;SDS011;29282;45.656;11.302;2023-02-15T09:04:15;11.85;;;6.45;;
33162;SDS011;29282;45.656;11.302;2023-02-15T09:06:41;13.32;;;7.10;;
33162;SDS011;29282;45.656;11.302;2023-02-15T09:09:08;10.35;;;6.40;;
33162;SDS011;29282;45.656;11.302;2023-02-15T09:11:36;10.30;;;6.20;;
33162;SDS011;29282;45.656;11.302;2023-02-15T09:14:05;15.20;;;6.72;;
33162;SDS011;29282;45.656;11.302;2023-02-15T09:16:34;14.13;;;6.43;;
33162;SDS011;29282;45.656;11.302;2023-02-15T09:19:03;9.05;;;6.35;;
33162;SDS011;29282;45.656;11.302;2023-02-15T09:21:30;9.25;;;6.10;;
33162;SDS011;29282;45.656;11.302;2023-02-15T09:23:57;12.85;;;7.05;;
33162;SDS011;29282;45.656;11.302;2023-02-15T09:26:25;10.25;;;6.60;;
33162;SDS011;29282;45.656;11.302;2023-02-15T09:28:52;12.43;;;6.32;;
33162;SDS011;29282;45.656;11.302;2023-02-15T09:31:22;10.95;;;7.13;;
33162;SDS011;29282;45.656;11.302;2023-02-15T09:33:49;11.35;;;6.35;;
33162;SDS011;29282;45.656;11.302;2023-02-15T09:36:22;8.82;;;6.30;;
33162;SDS011;29282;45.656;11.302;2023-02-15T09:38:57;13.13;;;6.53;;
33162;SDS011;29282;45.656;11.302;2023-02-15T09:58:20;10.23;;;5.82;;
33162;SDS011;29282;45.656;11.302;2023-02-15T10:06:31;10.80;;;6.72;;
33162;SDS011;29282;45.656;11.302;2023-02-15T10:20:05;8.43;;;5.77;;
33162;SDS011;29282;45.656;11.302;2023-02-15T10:22:34;10.52;;;6.57;;
33162;SDS011;29282;45.656;11.302;2023-02-15T10:27:55;11.38;;;6.88;;
33162;SDS011;29282;45.656;11.302;2023-02-15T10:33:01;9.30;;;6.18;;
33162;SDS011;29282;45.656;11.302;2023-02-15T10:41:12;8.55;;;6.30;;
33162;SDS011;29282;45.656;11.302;2023-02-15T10:54:26;7.72;;;6.32;;
33162;SDS011;29282;45.656;11.302;2023-02-15T11:00:19;9.20;;;5.90;;
33162;SDS011;29282;45.656;11.302;2023-02-15T11:08:44;11.25;;;6.18;;
33162;SDS011;29282;45.656;11.302;2023-02-15T11:11:47;8.70;;;6.13;;
33162;SDS011;29282;45.656;11.302;2023-02-15T11:16:55;9.50;;;6.32;;
33162;SDS011;29282;45.656;11.302;2023-02-15T11:19:31;8.57;;;6.07;;
33162;SDS011;29282;45.656;11.302;2023-02-15T11:22:04;9.20;;;5.55;;
33162;SDS011;29282;45.656;11.302;2023-02-15T11:24:40;8.48;;;6.22;;
33162;SDS011;29282;45.656;11.302;2023-02-15T11:27:21;8.20;;;5.70;;
33162;SDS011;29282;45.656;11.302;2023-02-15T11:32:31;9.50;;;6.35;;
33162;SDS011;29282;45.656;11.302;2023-02-15T11:37:46;8.88;;;5.85;;
33162;SDS011;29282;45.656;11.302;2023-02-15T11:47:57;9.00;;;6.28;;
33162;SDS011;29282;45.656;11.302;2023-02-15T11:50:25;9.95;;;6.53;;
33162;SDS011;29282;45.656;11.302;2023-02-15T11:52:56;8.02;;;6.20;;
33162;SDS011;29282;45.656;11.302;2023-02-15T11:55:27;8.57;;;5.97;;
33162;SDS011;29282;45.656;11.302;2023-02-15T12:01:41;9.57;;;6.55;;
33162;SDS011;29282;45.656;11.302;2023-02-15T12:03:47;9.40;;;6.07;;
33162;SDS011;29282;45.656;11.302;2023-02-15T12:14:50;11.52;;;6.40;;
33162;SDS011;29282;45.656;11.302;2023-02-15T12:17:17;8.40;;;6.22;;
33162;SDS011;29282;45.656;11.302;2023-02-15T12:19:45;8.60;;;5.75;;
33162;SDS011;29282;45.656;11.302;2023-02-15T12:22:34;8.07;;;6.20;;
33162;SDS011;29282;45.656;11.302;2023-02-15T12:25:04;9.20;;;5.82;;
33162;SDS011;29282;45.656;11.302;2023-02-15T12:27:45;7.65;;;5.80;;
33162;SDS011;29282;45.656;11.302;2023-02-15T12:30:23;7.43;;;6.00;;
33162;SDS011;29282;45.656;11.302;2023-02-15T12:38:36;10.38;;;5.35;;
33162;SDS011;29282;45.656;11.302;2023-02-15T12:41:04;7.05;;;5.32;;
33162;SDS011;29282;45.656;11.302;2023-02-15T12:49:25;8.52;;;5.65;;
33162;SDS011;29282;45.656;11.302;2023-02-15T12:51:56;6.50;;;5.20;;
33162;SDS011;29282;45.656;11.302;2023-02-15T12:56:51;9.43;;;5.80;;
33162;SDS011;29282;45.656;11.302;2023-02-15T12:59:17;7.97;;;5.78;;
33162;SDS011;29282;45.656;11.302;2023-02-15T13:01:49;6.60;;;5.20;;
33162;SDS011;29282;45.656;11.302;2023-02-15T13:04:23;7.65;;;5.35;;
33162;SDS011;29282;45.656;11.302;2023-02-15T13:06:58;10.35;;;5.90;;
33162;SDS011;29282;45.656;11.302;2023-02-15T13:14:47;15.48;;;5.22;;
33162;SDS011;29282;45.656;11.302;2023-02-15T13:17:16;7.78;;;5.43;;
33162;SDS011;29282;45.656;11.302;2023-02-15T13:19:49;10.68;;;5.68;;
33162;SDS011;29282;45.656;11.302;2023-02-15T13:22:25;8.75;;;5.03;;
33162;SDS011;29282;45.656;11.302;2023-02-15T13:28:16;8.50;;;5.28;;
33162;SDS011;29282;45.656;11.302;2023-02-15T13:30:48;11.35;;;5.85;;
33162;SDS011;29282;45.656;11.302;2023-02-15T13:33:31;10.55;;;5.63;;
33162;SDS011;29282;45.656;11.302;2023-02-15T13:38:40;9.48;;;5.68;;
33162;SDS011;29282;45.656;11.302;2023-02-15T13:41:40;7.97;;;5.00;;
33162;SDS011;29282;45.656;11.302;2023-02-15T13:58:01;7.72;;;5.10;;
33162;SDS011;29282;45.656;11.302;2023-02-15T14:06:28;7.38;;;5.03;;
33162;SDS011;29282;45.656;11.302;2023-02-15T14:09:08;7.47;;;5.35;;
33162;SDS011;29282;45.656;11.302;2023-02-15T14:12:01;7.72;;;5.18;;
33162;SDS011;29282;45.656;11.302;2023-02-15T14:20:04;11.35;;;5.30;;
33162;SDS011;29282;45.656;11.302;2023-02-15T14:22:41;9.80;;;5.35;;
33162;SDS011;29282;45.656;11.302;2023-02-15T14:25:25;7.72;;;5.35;;
33162;SDS011;29282;45.656;11.302;2023-02-15T14:30:28;9.13;;;5.55;;
33162;SDS011;29282;45.656;11.302;2023-02-15T14:33:02;6.97;;;5.60;;
33162;SDS011;29282;45.656;11.302;2023-02-15T14:35:32;8.38;;;5.45;;
33162;SDS011;29282;45.656;11.302;2023-02-15T14:46:41;7.68;;;5.30;;
33162;SDS011;29282;45.656;11.302;2023-02-15T14:49:37;7.75;;;5.47;;
33162;SDS011;29282;45.656;11.302;2023-02-15T14:52:06;9.65;;;5.03;;
33162;SDS011;29282;45.656;11.302;2023-02-15T15:02:27;8.38;;;5.15;;
33162;SDS011;29282;45.656;11.302;2023-02-15T15:05:11;8.93;;;5.43;;
33162;SDS011;29282;45.656;11.302;2023-02-15T15:07:55;9.68;;;5.55;;
33162;SDS011;29282;45.656;11.302;2023-02-15T15:12:55;9.27;;;5.35;;
33162;SDS011;29282;45.656;11.302;2023-02-15T15:22:51;5.53;;;4.63;;
33162;SDS011;29282;45.656;11.302;2023-02-15T15:25:46;6.82;;;4.55;;
33162;SDS011;29282;45.656;11.302;2023-02-15T15:31:02;7.43;;;5.25;;
33162;SDS011;29282;45.656;11.302;2023-02-15T15:42:32;9.85;;;5.55;;
33162;SDS011;29282;45.656;11.302;2023-02-15T15:48:36;6.97;;;5.22;;
33162;SDS011;29282;45.656;11.302;2023-02-15T15:53:47;8.57;;;5.40;;
33162;SDS011;29282;45.656;11.302;2023-02-15T15:56:20;7.00;;;5.40;;
33162;SDS011;29282;45.656;11.302;2023-02-15T15:58:54;8.13;;;5.30;;
33162;SDS011;29282;45.656;11.302;2023-02-15T16:01:29;7.25;;;4.85;;
33162;SDS011;29282;45.656;11.302;2023-02-15T16:03:57;7.55;;;5.03;;
33162;SDS011;29282;45.656;11.302;2023-02-15T16:06:34;5.57;;;4.60;;
33162;SDS011;29282;45.656;11.302;2023-02-15T16:09:12;6.95;;;5.22;;
33162;SDS011;29282;45.656;11.302;2023-02-15T16:11:58;7.55;;;5.18;;
33162;SDS011;29282;45.656;11.302;2023-02-15T16:14:30;8.35;;;5.50;;
33162;SDS011;29282;45.656;11.302;2023-02-15T16:17:01;7.63;;;5.30;;
33162;SDS011;29282;45.656;11.302;2023-02-15T16:19:32;7.72;;;4.90;;
33162;SDS011;29282;45.656;11.302;2023-02-15T16:22:00;8.40;;;5.20;;
33162;SDS011;29282;45.656;11.302;2023-02-15T16:24:37;12.80;;;6.40;;
33162;SDS011;29282;45.656;11.302;2023-02-15T16:27:15;10.20;;;5.85;;
33162;SDS011;29282;45.656;11.302;2023-02-15T16:29:43;8.80;;;5.20;;
33162;SDS011;29282;45.656;11.302;2023-02-15T16:32:22;9.32;;;5.65;;
33162;SDS011;29282;45.656;11.302;2023-02-15T16:34:53;8.65;;;5.45;;
33162;SDS011;29282;45.656;11.302;2023-02-15T16:37:25;11.55;;;5.70;;
33162;SDS011;29282;45.656;11.302;2023-02-15T16:39:55;7.22;;;5.47;;
33162;SDS011;29282;45.656;11.302;2023-02-15T16:42:21;7.25;;;4.95;;
33162;SDS011;29282;45.656;11.302;2023-02-15T16:47:35;7.25;;;5.72;;
33162;SDS011;29282;45.656;11.302;2023-02-15T16:50:19;7.68;;;5.05;;
33162;SDS011;29282;45.656;11.302;2023-02-15T16:52:46;8.38;;;5.55;;
33162;SDS011;29282;45.656;11.302;2023-02-15T16:55:25;12.35;;;5.72;;
33162;SDS011;29282;45.656;11.302;2023-02-15T16:57:55;6.85;;;5.20;;
33162;SDS011;29282;45.656;11.302;2023-02-15T17:00:25;6.20;;;5.30;;
33162;SDS011;29282;45.656;11.302;2023-02-15T17:02:59;7.80;;;5.25;;
33162;SDS011;29282;45.656;11.302;2023-02-15T17:13:02;7.40;;;5.18;;
33162;SDS011;29282;45.656;11.302;2023-02-15T17:15:39;9.15;;;5.43;;
33162;SDS011;29282;45.656;11.302;2023-02-15T17:18:10;8.77;;;5.78;;
33162;SDS011;29282;45.656;11.302;2023-02-15T17:20:43;7.28;;;4.97;;
33162;SDS011;29282;45.656;11.302;2023-02-15T17:25:58;9.05;;;5.90;;
33162;SDS011;29282;45.656;11.302;2023-02-15T17:28:27;8.60;;;5.60;;
33162;SDS011;29282;45.656;11.302;2023-02-15T17:30:56;10.75;;;5.30;;
33162;SDS011;29282;45.656;11.302;2023-02-15T17:36:09;9.52;;;5.90;;
33162;SDS011;29282;45.656;11.302;2023-02-15T17:41:43;9.88;;;5.13;;
33162;SDS011;29282;45.656;11.302;2023-02-15T17:44:09;13.93;;;6.47;;
33162;SDS011;29282;45.656;11.302;2023-02-15T17:46:39;7.05;;;5.25;;
33162;SDS011;29282;45.656;11.302;2023-02-15T17:49:05;9.68;;;5.60;;
33162;SDS011;29282;45.656;11.302;2023-02-15T17:51:32;9.55;;;6.00;;
33162;SDS011;29282;45.656;11.302;2023-02-15T17:54:00;9.30;;;5.43;;
33162;SDS011;29282;45.656;11.302;2023-02-15T17:56:47;9.55;;;5.57;;
33162;SDS011;29282;45.656;11.302;2023-02-15T17:59:12;8.80;;;5.57;;
33162;SDS011;29282;45.656;11.302;2023-02-15T18:01:43;9.80;;;5.68;;
33162;SDS011;29282;45.656;11.302;2023-02-15T18:04:30;10.63;;;5.95;;
33162;SDS011;29282;45.656;11.302;2023-02-15T18:07:17;8.68;;;5.70;;
33162;SDS011;29282;45.656;11.302;2023-02-15T18:10:11;7.78;;;5.70;;
33162;SDS011;29282;45.656;11.302;2023-02-15T18:12:57;7.78;;;5.38;;
33162;SDS011;29282;45.656;11.302;2023-02-15T18:15:22;13.75;;;5.95;;
33162;SDS011;29282;45.656;11.302;2023-02-15T18:17:48;9.73;;;5.75;;
33162;SDS011;29282;45.656;11.302;2023-02-15T18:22:44;10.27;;;5.80;;
33162;SDS011;29282;45.656;11.302;2023-02-15T18:25:14;8.85;;;5.88;;
33162;SDS011;29282;45.656;11.302;2023-02-15T18:27:42;9.63;;;5.78;;
33162;SDS011;29282;45.656;11.302;2023-02-15T18:30:12;6.90;;;5.78;;
33162;SDS011;29282;45.656;11.302;2023-02-15T18:32:40;8.15;;;5.95;;
33162;SDS011;29282;45.656;11.302;2023-02-15T18:35:06;8.48;;;5.65;;
33162;SDS011;29282;45.656;11.302;2023-02-15T18:37:38;8.35;;;6.30;;
33162;SDS011;29282;45.656;11.302;2023-02-15T18:40:03;8.45;;;5.78;;
33162;SDS011;29282;45.656;11.302;2023-02-15T18:42:30;10.25;;;6.28;;
33162;SDS011;29282;45.656;11.302;2023-02-15T18:45:00;11.10;;;6.68;;
33162;SDS011;29282;45.656;11.302;2023-02-15T18:47:31;7.32;;;5.55;;
33162;SDS011;29282;45.656;11.302;2023-02-15T18:49:57;11.35;;;6.35;;
33162;SDS011;29282;45.656;11.302;2023-02-15T18:52:23;13.60;;;6.10;;
33162;SDS011;29282;45.656;11.302;2023-02-15T18:54:54;9.68;;;6.07;;
33162;SDS011;29282;45.656;11.302;2023-02-15T18:57:22;8.77;;;6.55;;